sensor_id;sensor_type;location;lat;lon;timestamp;P1;durP1;ratioP1;P2;durP2;ratioP2
61015;SDS011;46902;52.920;6.536;2023-05-28T00:00:06;21.67;;;6.22;;
61015;SDS011;46902;52.920;6.536;2023-05-28T00:02:33;24.08;;;6.55;;
61015;SDS011;46902;52.920;6.536;2023-05-28T00:04:59;21.17;;;6.20;;
61015;SDS011;46902;52.920;6.536;2023-05-28T00:07:25;15.68;;;5.75;;
61015;SDS011;46902;52.920;6.536;2023-05-28T00:09:53;16.33;;;6.55;;
61015;SDS011;46902;52.920;6.536;2023-05-28T00:12:20;18.60;;;6.32;;
61015;SDS011;46902;52.920;6.536;2023-05-28T00:14:46;19.25;;;6.43;;
61015;SDS011;46902;52.920;6.536;2023-05-28T00:17:13;21.00;;;6.57;;
61015;SDS011;46902;52.920;6.536;2023-05-28T00:19:40;24.85;;;6.40;;
61015;SDS011;46902;52.920;6.536;2023-05-28T00:22:07;21.58;;;6.47;;
61015;SDS011;46902;52.920;6.536;2023-05-28T00:24:32;19.42;;;6.32;;
61015;SDS011;46902;52.920;6.536;2023-05-28T00:26:58;26.25;;;7.70;;
61015;SDS011;46902;52.920;6.536;2023-05-28T00:29:24;19.60;;;5.43;;
61015;SDS011;46902;52.920;6.536;2023-05-28T00:31:52;21.10;;;6.25;;
61015;SDS011;46902;52.920;6.536;2023-05-28T00:34:21;17.15;;;6.03;;
61015;SDS011;46902;52.920;6.536;2023-05-28T00:36:50;20.30;;;6.30;;
61015;SDS011;46902;52.920;6.536;2023-05-28T00:39:16;21.77;;;6.43;;
61015;SDS011;46902;52.920;6.536;2023-05-28T00:41:42;18.95;;;6.15;;
61015;SDS011;46902;52.920;6.536;2023-05-28T00:44:08;22.00;;;6.32;;
61015;SDS011;46902;52.920;6.536;2023-05-28T00:46:37;19.90;;;6.38;;
61015;SDS011;46902;52.920;6.536;2023-05-28T00:49:07;24.15;;;6.65;;
61015;SDS011;46902;52.920;6.536;2023-05-28T00:51:34;17.67;;;6.63;;
61015;SDS011;46902;52.920;6.536;2023-05-28T00:54:00;16.10;;;5.80;;
61015;SDS011;46902;52.920;6.536;2023-05-28T00:56:27;17.60;;;5.93;;
61015;SDS011;46902;52.920;6.536;2023-05-28T00:58:53;15.70;;;6.20;;
61015;SDS011;46902;52.920;6.536;2023-05-28T01:01:20;15.85;;;5.95;;
61015;SDS011;46902;52.920;6.536;2023-05-28T01:03:49;16.90;;;5.53;;
61015;SDS011;46902;52.920;6.536;2023-05-28T01:06:16;14.95;;;6.05;;
61015;SDS011;46902;52.920;6.536;2023-05-28T01:08:42;19.77;;;6.00;;
61015;SDS011;46902;52.920;6.536;2023-05-28T01:11:09;14.80;;;5.82;;
61015;SDS011;46902;52.920;6.536;2023-05-28T01:13:39;20.50;;;6.05;;
61015;SDS011;46902;52.920;6.536;2023-05-28T01:16:06;20.83;;;6.35;;
61015;SDS011;46902;52.920;6.536;2023-05-28T01:18:32;19.95;;;6.45;;
61015;SDS011;46902;52.920;6.536;2023-05-28T01:21:01;18.90;;;5.97;;
61015;SDS011;46902;52.920;6.536;2023-05-28T01:23:28;17.38;;;6.75;;
61015;SDS011;46902;52.920;6.536;2023-05-28T01:25:54;18.30;;;6.10;;
61015;SDS011;46902;52.920;6.536;2023-05-28T01:28:21;18.63;;;6.38;;
61015;SDS011;46902;52.920;6.536;2023-05-28T01:30:47;20.48;;;5.72;;
61015;SDS011;46902;52.920;6.536;2023-05-28T01:33:13;18.05;;;6.38;;
61015;SDS011;46902;52.920;6.536;2023-05-28T01:35:40;19.38;;;6.22;;
61015;SDS011;46902;52.920;6.536;2023-05-28T01:38:07;20.92;;;6.05;;
61015;SDS011;46902;52.920;6.536;2023-05-28T01:40:35;21.98;;;6.38;;
61015;SDS011;46902;52.920;6.536;2023-05-28T01:43:03;18.60;;;6.47;;
61015;SDS011;46902;52.920;6.536;2023-05-28T01:45:29;19.35;;;6.90;;
61015;SDS011;46902;52.920;6.536;2023-05-28T01:47:55;16.10;;;6.53;;
61015;SDS011;46902;52.920;6.536;2023-05-28T01:50:21;18.83;;;6.40;;
61015;SDS011;46902;52.920;6.536;2023-05-28T01:52:48;20.35;;;6.03;;
61015;SDS011;46902;52.920;6.536;2023-05-28T01:55:13;20.45;;;6.90;;
61015;SDS011;46902;52.920;6.536;2023-05-28T01:57:39;21.95;;;6.28;;
61015;SDS011;46902;52.920;6.536;2023-05-28T02:00:05;19.88;;;6.03;;
61015;SDS011;46902;52.920;6.536;2023-05-28T02:02:32;20.58;;;6.93;;
61015;SDS011;46902;52.920;6.536;2023-05-28T02:04:59;17.98;;;6.38;;
61015;SDS011;46902;52.920;6.536;2023-05-28T02:07:25;22.60;;;6.78;;
61015;SDS011;46902;52.920;6.536;2023-05-28T02:09:51;22.60;;;6.75;;
61015;SDS011;46902;52.920;6.536;2023-05-28T02:12:17;18.17;;;6.75;;
61015;SDS011;46902;52.920;6.536;2023-05-28T02:14:46;20.02;;;5.95;;
61015;SDS011;46902;52.920;6.536;2023-05-28T02:17:12;17.00;;;7.00;;
61015;SDS011;46902;52.920;6.536;2023-05-28T02:19:37;20.90;;;6.80;;
61015;SDS011;46902;52.920;6.536;2023-05-28T02:22:03;23.77;;;6.90;;
61015;SDS011;46902;52.920;6.536;2023-05-28T02:24:35;21.50;;;5.90;;
61015;SDS011;46902;52.920;6.536;2023-05-28T02:27:01;17.85;;;6.15;;
61015;SDS011;46902;52.920;6.536;2023-05-28T02:29:28;18.08;;;6.22;;
61015;SDS011;46902;52.920;6.536;2023-05-28T02:31:54;21.58;;;7.18;;
61015;SDS011;46902;52.920;6.536;2023-05-28T02:34:20;18.60;;;7.20;;
61015;SDS011;46902;52.920;6.536;2023-05-28T02:36:46;21.15;;;6.40;;
61015;SDS011;46902;52.920;6.536;2023-05-28T02:39:11;18.80;;;7.20;;
61015;SDS011;46902;52.920;6.536;2023-05-28T02:41:37;16.63;;;6.00;;
61015;SDS011;46902;52.920;6.536;2023-05-28T02:44:02;17.63;;;6.68;;
61015;SDS011;46902;52.920;6.536;2023-05-28T02:46:28;17.83;;;6.88;;
61015;SDS011;46902;52.920;6.536;2023-05-28T02:48:54;19.85;;;6.78;;
61015;SDS011;46902;52.920;6.536;2023-05-28T02:51:19;15.90;;;5.72;;
61015;SDS011;46902;52.920;6.536;2023-05-28T02:53:45;20.65;;;6.75;;
61015;SDS011;46902;52.920;6.536;2023-05-28T02:56:11;23.27;;;6.97;;
61015;SDS011;46902;52.920;6.536;2023-05-28T02:58:36;18.90;;;6.15;;
61015;SDS011;46902;52.920;6.536;2023-05-28T03:01:02;16.70;;;6.03;;
61015;SDS011;46902;52.920;6.536;2023-05-28T03:03:28;17.63;;;6.07;;
61015;SDS011;46902;52.920;6.536;2023-05-28T03:05:54;22.50;;;6.63;;
61015;SDS011;46902;52.920;6.536;2023-05-28T03:08:20;19.70;;;6.20;;
61015;SDS011;46902;52.920;6.536;2023-05-28T03:10:45;18.23;;;6.40;;
61015;SDS011;46902;52.920;6.536;2023-05-28T03:13:11;18.50;;;5.88;;
61015;SDS011;46902;52.920;6.536;2023-05-28T03:15:37;16.35;;;7.03;;
61015;SDS011;46902;52.920;6.536;2023-05-28T03:18:02;19.83;;;7.18;;
61015;SDS011;46902;52.920;6.536;2023-05-28T03:20:31;17.60;;;6.15;;
61015;SDS011;46902;52.920;6.536;2023-05-28T03:22:56;17.48;;;6.10;;
61015;SDS011;46902;52.920;6.536;2023-05-28T03:25:23;14.90;;;6.70;;
61015;SDS011;46902;52.920;6.536;2023-05-28T03:27:50;18.17;;;6.00;;
61015;SDS011;46902;52.920;6.536;2023-05-28T03:30:17;20.88;;;6.82;;
61015;SDS011;46902;52.920;6.536;2023-05-28T03:32:42;19.00;;;6.43;;
61015;SDS011;46902;52.920;6.536;2023-05-28T03:35:08;19.67;;;6.28;;
61015;SDS011;46902;52.920;6.536;2023-05-28T03:37:34;17.92;;;6.38;;
61015;SDS011;46902;52.920;6.536;2023-05-28T03:39:59;15.55;;;5.85;;
61015;SDS011;46902;52.920;6.536;2023-05-28T03:42:25;20.63;;;6.85;;
61015;SDS011;46902;52.920;6.536;2023-05-28T03:44:50;16.73;;;6.10;;
61015;SDS011;46902;52.920;6.536;2023-05-28T03:47:16;20.05;;;6.45;;
61015;SDS011;46902;52.920;6.536;2023-05-28T03:49:42;16.48;;;6.28;;
61015;SDS011;46902;52.920;6.536;2023-05-28T03:52:08;17.85;;;6.85;;
61015;SDS011;46902;52.920;6.536;2023-05-28T03:54:34;19.15;;;6.03;;
61015;SDS011;46902;52.920;6.536;2023-05-28T03:57:00;25.30;;;6.97;;
61015;SDS011;46902;52.920;6.536;2023-05-28T03:59:26;16.42;;;6.30;;
61015;SDS011;46902;52.920;6.536;2023-05-28T04:01:52;20.85;;;5.97;;
61015;SDS011;46902;52.920;6.536;2023-05-28T04:04:18;16.35;;;6.22;;
61015;SDS011;46902;52.920;6.536;2023-05-28T04:06:43;17.10;;;6.10;;
61015;SDS011;46902;52.920;6.536;2023-05-28T04:09:09;18.08;;;6.05;;
61015;SDS011;46902;52.920;6.536;2023-05-28T04:11:35;18.95;;;5.80;;
61015;SDS011;46902;52.920;6.536;2023-05-28T04:14:02;15.93;;;6.18;;
61015;SDS011;46902;52.920;6.536;2023-05-28T04:16:28;18.55;;;6.45;;
61015;SDS011;46902;52.920;6.536;2023-05-28T04:18:54;20.63;;;6.38;;
61015;SDS011;46902;52.920;6.536;2023-05-28T04:21:20;17.55;;;6.10;;
61015;SDS011;46902;52.920;6.536;2023-05-28T04:23:47;20.45;;;6.93;;
61015;SDS011;46902;52.920;6.536;2023-05-28T04:26:12;13.80;;;6.13;;
61015;SDS011;46902;52.920;6.536;2023-05-28T04:28:39;20.33;;;5.80;;
61015;SDS011;46902;52.920;6.536;2023-05-28T04:31:06;19.95;;;6.50;;
61015;SDS011;46902;52.920;6.536;2023-05-28T04:33:32;17.95;;;5.97;;
61015;SDS011;46902;52.920;6.536;2023-05-28T04:35:58;22.52;;;6.50;;
61015;SDS011;46902;52.920;6.536;2023-05-28T04:38:24;18.17;;;6.03;;
61015;SDS011;46902;52.920;6.536;2023-05-28T04:40:54;18.67;;;6.10;;
61015;SDS011;46902;52.920;6.536;2023-05-28T04:43:20;15.88;;;6.05;;
61015;SDS011;46902;52.920;6.536;2023-05-28T04:45:46;19.27;;;6.28;;
61015;SDS011;46902;52.920;6.536;2023-05-28T04:48:12;22.88;;;6.70;;
61015;SDS011;46902;52.920;6.536;2023-05-28T04:50:38;15.38;;;5.68;;
61015;SDS011;46902;52.920;6.536;2023-05-28T04:53:05;20.52;;;6.28;;
61015;SDS011;46902;52.920;6.536;2023-05-28T04:55:30;17.55;;;6.20;;
61015;SDS011;46902;52.920;6.536;2023-05-28T04:57:56;23.88;;;6.22;;
61015;SDS011;46902;52.920;6.536;2023-05-28T05:00:22;20.50;;;6.43;;
61015;SDS011;46902;52.920;6.536;2023-05-28T05:02:49;17.38;;;6.03;;
61015;SDS011;46902;52.920;6.536;2023-05-28T05:05:16;17.30;;;5.60;;
61015;SDS011;46902;52.920;6.536;2023-05-28T05:07:41;20.67;;;5.88;;
61015;SDS011;46902;52.920;6.536;2023-05-28T05:10:07;13.55;;;5.45;;
61015;SDS011;46902;52.920;6.536;2023-05-28T05:12:34;19.23;;;5.95;;
61015;SDS011;46902;52.920;6.536;2023-05-28T05:15:00;17.02;;;6.18;;
61015;SDS011;46902;52.920;6.536;2023-05-28T05:17:26;16.95;;;5.53;;
61015;SDS011;46902;52.920;6.536;2023-05-28T05:19:52;20.95;;;5.75;;
61015;SDS011;46902;52.920;6.536;2023-05-28T05:22:17;17.65;;;5.90;;
61015;SDS011;46902;52.920;6.536;2023-05-28T05:24:45;16.80;;;5.72;;
61015;SDS011;46902;52.920;6.536;2023-05-28T05:27:11;20.02;;;5.80;;
61015;SDS011;46902;52.920;6.536;2023-05-28T05:29:37;17.10;;;5.97;;
61015;SDS011;46902;52.920;6.536;2023-05-28T05:32:02;14.35;;;5.60;;
61015;SDS011;46902;52.920;6.536;2023-05-28T05:34:28;15.45;;;5.40;;
61015;SDS011;46902;52.920;6.536;2023-05-28T05:36:54;12.95;;;5.15;;
61015;SDS011;46902;52.920;6.536;2023-05-28T05:39:19;18.83;;;5.40;;
61015;SDS011;46902;52.920;6.536;2023-05-28T05:41:45;19.13;;;5.25;;
61015;SDS011;46902;52.920;6.536;2023-05-28T05:44:10;17.60;;;5.18;;
61015;SDS011;46902;52.920;6.536;2023-05-28T05:46:36;14.85;;;5.05;;
61015;SDS011;46902;52.920;6.536;2023-05-28T05:49:02;16.98;;;5.30;;
61015;SDS011;46902;52.920;6.536;2023-05-28T05:51:27;17.02;;;5.57;;
61015;SDS011;46902;52.920;6.536;2023-05-28T05:53:53;14.57;;;4.90;;
61015;SDS011;46902;52.920;6.536;2023-05-28T05:56:18;16.60;;;5.10;;
61015;SDS011;46902;52.920;6.536;2023-05-28T05:58:44;15.80;;;5.10;;
61015;SDS011;46902;52.920;6.536;2023-05-28T06:01:10;17.17;;;5.38;;
61015;SDS011;46902;52.920;6.536;2023-05-28T06:03:36;18.67;;;5.38;;
61015;SDS011;46902;52.920;6.536;2023-05-28T06:06:01;16.35;;;4.95;;
61015;SDS011;46902;52.920;6.536;2023-05-28T06:08:27;16.90;;;5.45;;
61015;SDS011;46902;52.920;6.536;2023-05-28T06:10:53;15.00;;;5.20;;
61015;SDS011;46902;52.920;6.536;2023-05-28T06:13:18;15.40;;;5.22;;
61015;SDS011;46902;52.920;6.536;2023-05-28T06:15:44;15.80;;;4.65;;
61015;SDS011;46902;52.920;6.536;2023-05-28T06:18:10;14.73;;;5.13;;
61015;SDS011;46902;52.920;6.536;2023-05-28T06:20:36;15.75;;;5.70;;
61015;SDS011;46902;52.920;6.536;2023-05-28T06:23:02;13.57;;;5.18;;
61015;SDS011;46902;52.920;6.536;2023-05-28T06:25:28;12.93;;;4.90;;
61015;SDS011;46902;52.920;6.536;2023-05-28T06:27:54;13.95;;;4.90;;
61015;SDS011;46902;52.920;6.536;2023-05-28T06:30:19;14.40;;;5.55;;
61015;SDS011;46902;52.920;6.536;2023-05-28T06:32:45;14.55;;;4.95;;
61015;SDS011;46902;52.920;6.536;2023-05-28T06:35:11;13.18;;;5.10;;
61015;SDS011;46902;52.920;6.536;2023-05-28T06:37:36;16.65;;;5.72;;
61015;SDS011;46902;52.920;6.536;2023-05-28T06:40:02;13.85;;;5.00;;
61015;SDS011;46902;52.920;6.536;2023-05-28T06:42:31;12.50;;;4.38;;
61015;SDS011;46902;52.920;6.536;2023-05-28T06:44:57;11.68;;;4.97;;
61015;SDS011;46902;52.920;6.536;2023-05-28T06:47:24;12.90;;;4.75;;
61015;SDS011;46902;52.920;6.536;2023-05-28T06:49:50;12.05;;;4.53;;
61015;SDS011;46902;52.920;6.536;2023-05-28T06:52:16;13.32;;;4.55;;
61015;SDS011;46902;52.920;6.536;2023-05-28T06:54:44;15.05;;;4.88;;
61015;SDS011;46902;52.920;6.536;2023-05-28T06:57:10;15.70;;;5.20;;
61015;SDS011;46902;52.920;6.536;2023-05-28T06:59:35;14.10;;;4.90;;
61015;SDS011;46902;52.920;6.536;2023-05-28T07:02:01;14.85;;;5.15;;
61015;SDS011;46902;52.920;6.536;2023-05-28T07:04:27;13.23;;;5.47;;
61015;SDS011;46902;52.920;6.536;2023-05-28T07:06:53;12.32;;;5.65;;
61015;SDS011;46902;52.920;6.536;2023-05-28T07:09:19;16.20;;;5.40;;
61015;SDS011;46902;52.920;6.536;2023-05-28T07:11:44;13.95;;;5.25;;
61015;SDS011;46902;52.920;6.536;2023-05-28T07:14:10;16.42;;;5.60;;
61015;SDS011;46902;52.920;6.536;2023-05-28T07:16:36;12.45;;;5.40;;
61015;SDS011;46902;52.920;6.536;2023-05-28T07:19:01;13.88;;;5.47;;
61015;SDS011;46902;52.920;6.536;2023-05-28T07:21:27;11.95;;;5.70;;
61015;SDS011;46902;52.920;6.536;2023-05-28T07:23:53;12.65;;;5.40;;
61015;SDS011;46902;52.920;6.536;2023-05-28T07:26:18;12.27;;;5.15;;
61015;SDS011;46902;52.920;6.536;2023-05-28T07:28:44;14.75;;;6.03;;
61015;SDS011;46902;52.920;6.536;2023-05-28T07:31:09;10.85;;;5.15;;
61015;SDS011;46902;52.920;6.536;2023-05-28T07:33:35;14.38;;;5.43;;
61015;SDS011;46902;52.920;6.536;2023-05-28T07:36:01;12.98;;;5.47;;
61015;SDS011;46902;52.920;6.536;2023-05-28T07:38:26;14.93;;;5.72;;
61015;SDS011;46902;52.920;6.536;2023-05-28T07:40:52;12.65;;;5.75;;
61015;SDS011;46902;52.920;6.536;2023-05-28T07:43:17;15.07;;;6.07;;
61015;SDS011;46902;52.920;6.536;2023-05-28T07:45:43;11.93;;;5.80;;
61015;SDS011;46902;52.920;6.536;2023-05-28T07:48:09;13.95;;;5.60;;
61015;SDS011;46902;52.920;6.536;2023-05-28T07:50:34;11.25;;;5.25;;
61015;SDS011;46902;52.920;6.536;2023-05-28T07:53:00;12.10;;;5.85;;
61015;SDS011;46902;52.920;6.536;2023-05-28T07:55:28;12.25;;;5.75;;
61015;SDS011;46902;52.920;6.536;2023-05-28T07:57:54;12.55;;;5.82;;
61015;SDS011;46902;52.920;6.536;2023-05-28T08:00:20;12.88;;;5.53;;
61015;SDS011;46902;52.920;6.536;2023-05-28T08:02:45;13.75;;;6.05;;
61015;SDS011;46902;52.920;6.536;2023-05-28T08:05:11;13.05;;;5.90;;
61015;SDS011;46902;52.920;6.536;2023-05-28T08:07:37;9.57;;;5.55;;
61015;SDS011;46902;52.920;6.536;2023-05-28T08:10:04;12.30;;;5.80;;
61015;SDS011;46902;52.920;6.536;2023-05-28T08:12:29;12.70;;;6.10;;
61015;SDS011;46902;52.920;6.536;2023-05-28T08:14:55;14.50;;;5.97;;
61015;SDS011;46902;52.920;6.536;2023-05-28T08:17:21;11.48;;;5.78;;
61015;SDS011;46902;52.920;6.536;2023-05-28T08:19:48;11.93;;;5.72;;
61015;SDS011;46902;52.920;6.536;2023-05-28T08:22:14;11.27;;;5.43;;
61015;SDS011;46902;52.920;6.536;2023-05-28T08:24:40;12.65;;;5.57;;
61015;SDS011;46902;52.920;6.536;2023-05-28T08:27:06;9.73;;;5.50;;
61015;SDS011;46902;52.920;6.536;2023-05-28T08:29:32;14.15;;;5.00;;
61015;SDS011;46902;52.920;6.536;2023-05-28T08:31:57;11.82;;;5.63;;
61015;SDS011;46902;52.920;6.536;2023-05-28T08:34:24;9.75;;;5.07;;
61015;SDS011;46902;52.920;6.536;2023-05-28T08:36:50;13.23;;;5.32;;
61015;SDS011;46902;52.920;6.536;2023-05-28T08:39:16;12.02;;;5.18;;
61015;SDS011;46902;52.920;6.536;2023-05-28T08:41:42;9.63;;;4.68;;
61015;SDS011;46902;52.920;6.536;2023-05-28T08:44:08;9.35;;;5.07;;
61015;SDS011;46902;52.920;6.536;2023-05-28T08:46:34;12.40;;;5.13;;
61015;SDS011;46902;52.920;6.536;2023-05-28T08:49:01;10.10;;;4.50;;
61015;SDS011;46902;52.920;6.536;2023-05-28T08:51:27;12.13;;;5.10;;
61015;SDS011;46902;52.920;6.536;2023-05-28T08:53:58;15.00;;;5.47;;
61015;SDS011;46902;52.920;6.536;2023-05-28T08:56:24;10.75;;;4.68;;
61015;SDS011;46902;52.920;6.536;2023-05-28T08:58:51;11.07;;;4.80;;
61015;SDS011;46902;52.920;6.536;2023-05-28T09:01:17;9.65;;;4.35;;
61015;SDS011;46902;52.920;6.536;2023-05-28T09:03:43;13.98;;;4.82;;
61015;SDS011;46902;52.920;6.536;2023-05-28T09:06:08;11.45;;;4.45;;
61015;SDS011;46902;52.920;6.536;2023-05-28T09:08:34;10.15;;;4.70;;
61015;SDS011;46902;52.920;6.536;2023-05-28T09:11:21;9.77;;;4.85;;
61015;SDS011;46902;52.920;6.536;2023-05-28T09:13:46;12.10;;;4.38;;
61015;SDS011;46902;52.920;6.536;2023-05-28T09:16:19;7.97;;;4.22;;
61015;SDS011;46902;52.920;6.536;2023-05-28T09:18:49;12.75;;;4.40;;
61015;SDS011;46902;52.920;6.536;2023-05-28T09:21:17;10.05;;;4.85;;
61015;SDS011;46902;52.920;6.536;2023-05-28T09:23:44;9.68;;;3.90;;
61015;SDS011;46902;52.920;6.536;2023-05-28T09:26:11;7.28;;;4.03;;
61015;SDS011;46902;52.920;6.536;2023-05-28T09:28:40;9.05;;;4.30;;
61015;SDS011;46902;52.920;6.536;2023-05-28T09:31:07;8.40;;;4.80;;
61015;SDS011;46902;52.920;6.536;2023-05-28T09:33:33;9.30;;;4.60;;
61015;SDS011;46902;52.920;6.536;2023-05-28T09:35:59;5.95;;;4.28;;
61015;SDS011;46902;52.920;6.536;2023-05-28T09:38:26;7.78;;;4.55;;
61015;SDS011;46902;52.920;6.536;2023-05-28T09:41:02;11.23;;;4.80;;
61015;SDS011;46902;52.920;6.536;2023-05-28T09:43:28;7.57;;;4.75;;
61015;SDS011;46902;52.920;6.536;2023-05-28T09:46:07;8.25;;;4.28;;
61015;SDS011;46902;52.920;6.536;2023-05-28T09:48:33;10.23;;;4.43;;
61015;SDS011;46902;52.920;6.536;2023-05-28T09:51:00;8.40;;;4.00;;
61015;SDS011;46902;52.920;6.536;2023-05-28T09:53:29;6.60;;;4.30;;
61015;SDS011;46902;52.920;6.536;2023-05-28T09:55:58;8.15;;;4.55;;
61015;SDS011;46902;52.920;6.536;2023-05-28T09:58:34;7.43;;;4.72;;
61015;SDS011;46902;52.920;6.536;2023-05-28T10:01:07;8.05;;;4.85;;
61015;SDS011;46902;52.920;6.536;2023-05-28T10:06:04;9.32;;;4.97;;
61015;SDS011;46902;52.920;6.536;2023-05-28T10:08:35;10.40;;;5.22;;
61015;SDS011;46902;52.920;6.536;2023-05-28T10:11:02;9.07;;;5.03;;
61015;SDS011;46902;52.920;6.536;2023-05-28T10:13:30;7.45;;;5.10;;
61015;SDS011;46902;52.920;6.536;2023-05-28T10:15:56;7.25;;;4.70;;
61015;SDS011;46902;52.920;6.536;2023-05-28T10:18:23;9.85;;;4.30;;
61015;SDS011;46902;52.920;6.536;2023-05-28T10:20:50;9.55;;;5.20;;
61015;SDS011;46902;52.920;6.536;2023-05-28T10:23:16;11.85;;;5.03;;
61015;SDS011;46902;52.920;6.536;2023-05-28T10:25:45;8.35;;;4.43;;
61015;SDS011;46902;52.920;6.536;2023-05-28T10:28:13;8.95;;;4.57;;
61015;SDS011;46902;52.920;6.536;2023-05-28T10:30:40;10.18;;;4.80;;
61015;SDS011;46902;52.920;6.536;2023-05-28T10:33:11;9.45;;;5.20;;
61015;SDS011;46902;52.920;6.536;2023-05-28T10:35:53;8.20;;;4.53;;
61015;SDS011;46902;52.920;6.536;2023-05-28T10:38:20;11.93;;;5.30;;
61015;SDS011;46902;52.920;6.536;2023-05-28T10:40:46;9.55;;;5.05;;
61015;SDS011;46902;52.920;6.536;2023-05-28T10:46:54;8.57;;;5.43;;
61015;SDS011;46902;52.920;6.536;2023-05-28T10:54:24;8.48;;;5.03;;
61015;SDS011;46902;52.920;6.536;2023-05-28T10:57:08;7.60;;;5.05;;
61015;SDS011;46902;52.920;6.536;2023-05-28T11:00:00;9.27;;;5.47;;
61015;SDS011;46902;52.920;6.536;2023-05-28T11:02:32;9.10;;;5.72;;
61015;SDS011;46902;52.920;6.536;2023-05-28T11:04:59;8.52;;;5.78;;
61015;SDS011;46902;52.920;6.536;2023-05-28T11:07:30;11.00;;;5.70;;
61015;SDS011;46902;52.920;6.536;2023-05-28T11:09:58;7.93;;;5.37;;
61015;SDS011;46902;52.920;6.536;2023-05-28T11:12:29;8.57;;;4.70;;
61015;SDS011;46902;52.920;6.536;2023-05-28T11:14:55;9.68;;;4.82;;
61015;SDS011;46902;52.920;6.536;2023-05-28T11:17:21;7.13;;;4.30;;
61015;SDS011;46902;52.920;6.536;2023-05-28T11:19:47;7.13;;;4.57;;
61015;SDS011;46902;52.920;6.536;2023-05-28T11:22:15;7.35;;;4.78;;
61015;SDS011;46902;52.920;6.536;2023-05-28T11:27:34;6.85;;;4.90;;
61015;SDS011;46902;52.920;6.536;2023-05-28T11:30:15;6.88;;;4.70;;
61015;SDS011;46902;52.920;6.536;2023-05-28T11:32:41;8.90;;;4.68;;
61015;SDS011;46902;52.920;6.536;2023-05-28T11:35:09;7.25;;;4.55;;
61015;SDS011;46902;52.920;6.536;2023-05-28T11:37:37;6.97;;;5.32;;
61015;SDS011;46902;52.920;6.536;2023-05-28T11:40:04;9.35;;;5.60;;
61015;SDS011;46902;52.920;6.536;2023-05-28T11:42:34;8.38;;;5.22;;
61015;SDS011;46902;52.920;6.536;2023-05-28T11:45:01;7.65;;;5.25;;
61015;SDS011;46902;52.920;6.536;2023-05-28T11:47:27;6.72;;;4.32;;
61015;SDS011;46902;52.920;6.536;2023-05-28T11:49:57;6.57;;;5.07;;
61015;SDS011;46902;52.920;6.536;2023-05-28T11:52:24;8.57;;;5.70;;
61015;SDS011;46902;52.920;6.536;2023-05-28T11:54:54;8.20;;;5.45;;
61015;SDS011;46902;52.920;6.536;2023-05-28T11:57:26;6.65;;;5.10;;
61015;SDS011;46902;52.920;6.536;2023-05-28T12:00:00;8.50;;;5.13;;
61015;SDS011;46902;52.920;6.536;2023-05-28T12:02:51;9.63;;;5.30;;
61015;SDS011;46902;52.920;6.536;2023-05-28T12:05:18;7.57;;;4.95;;
61015;SDS011;46902;52.920;6.536;2023-05-28T12:07:48;7.85;;;5.05;;
61015;SDS011;46902;52.920;6.536;2023-05-28T12:10:16;9.60;;;5.07;;
61015;SDS011;46902;52.920;6.536;2023-05-28T12:12:52;7.78;;;5.18;;
61015;SDS011;46902;52.920;6.536;2023-05-28T12:15:21;7.20;;;3.95;;
61015;SDS011;46902;52.920;6.536;2023-05-28T12:18:01;7.35;;;4.18;;
61015;SDS011;46902;52.920;6.536;2023-05-28T12:20:28;8.57;;;4.00;;
61015;SDS011;46902;52.920;6.536;2023-05-28T12:23:06;6.90;;;3.40;;
61015;SDS011;46902;52.920;6.536;2023-05-28T12:28:11;5.63;;;3.40;;
61015;SDS011;46902;52.920;6.536;2023-05-28T12:30:38;5.90;;;3.55;;
61015;SDS011;46902;52.920;6.536;2023-05-28T12:33:04;7.65;;;3.78;;
61015;SDS011;46902;52.920;6.536;2023-05-28T12:35:30;7.15;;;3.30;;
61015;SDS011;46902;52.920;6.536;2023-05-28T12:37:56;6.03;;;3.22;;
61015;SDS011;46902;52.920;6.536;2023-05-28T12:40:22;6.68;;;3.22;;
61015;SDS011;46902;52.920;6.536;2023-05-28T12:42:47;7.53;;;2.88;;
61015;SDS011;46902;52.920;6.536;2023-05-28T12:45:13;5.72;;;3.03;;
61015;SDS011;46902;52.920;6.536;2023-05-28T12:47:38;7.80;;;2.92;;
61015;SDS011;46902;52.920;6.536;2023-05-28T12:50:04;10.95;;;3.00;;
61015;SDS011;46902;52.920;6.536;2023-05-28T12:52:30;8.07;;;2.88;;
61015;SDS011;46902;52.920;6.536;2023-05-28T12:54:58;5.53;;;2.72;;
61015;SDS011;46902;52.920;6.536;2023-05-28T12:57:24;9.38;;;2.95;;
61015;SDS011;46902;52.920;6.536;2023-05-28T12:59:50;9.50;;;3.10;;
61015;SDS011;46902;52.920;6.536;2023-05-28T13:02:15;10.00;;;3.00;;
61015;SDS011;46902;52.920;6.536;2023-05-28T13:04:41;8.95;;;2.78;;
61015;SDS011;46902;52.920;6.536;2023-05-28T13:07:06;7.97;;;2.90;;
61015;SDS011;46902;52.920;6.536;2023-05-28T13:09:35;9.35;;;3.60;;
61015;SDS011;46902;52.920;6.536;2023-05-28T13:12:01;8.77;;;3.10;;
61015;SDS011;46902;52.920;6.536;2023-05-28T13:14:27;10.88;;;3.45;;
61015;SDS011;46902;52.920;6.536;2023-05-28T13:16:53;6.00;;;2.83;;
61015;SDS011;46902;52.920;6.536;2023-05-28T13:19:22;9.13;;;3.28;;
61015;SDS011;46902;52.920;6.536;2023-05-28T13:21:48;7.72;;;2.97;;
61015;SDS011;46902;52.920;6.536;2023-05-28T13:24:14;12.65;;;3.35;;
61015;SDS011;46902;52.920;6.536;2023-05-28T13:26:39;10.38;;;2.97;;
61015;SDS011;46902;52.920;6.536;2023-05-28T13:29:05;9.95;;;3.38;;
61015;SDS011;46902;52.920;6.536;2023-05-28T13:31:31;8.38;;;2.88;;
61015;SDS011;46902;52.920;6.536;2023-05-28T13:33:57;13.13;;;3.35;;
61015;SDS011;46902;52.920;6.536;2023-05-28T13:36:23;7.13;;;2.88;;
61015;SDS011;46902;52.920;6.536;2023-05-28T13:38:49;11.32;;;3.78;;
61015;SDS011;46902;52.920;6.536;2023-05-28T13:41:15;8.85;;;3.08;;
61015;SDS011;46902;52.920;6.536;2023-05-28T13:43:41;10.98;;;3.15;;
61015;SDS011;46902;52.920;6.536;2023-05-28T13:46:07;11.00;;;3.50;;
61015;SDS011;46902;52.920;6.536;2023-05-28T13:48:33;9.38;;;3.47;;
61015;SDS011;46902;52.920;6.536;2023-05-28T13:50:59;9.75;;;2.95;;
61015;SDS011;46902;52.920;6.536;2023-05-28T13:53:30;10.88;;;3.70;;
61015;SDS011;46902;52.920;6.536;2023-05-28T13:55:56;10.18;;;3.28;;
61015;SDS011;46902;52.920;6.536;2023-05-28T13:58:23;8.23;;;3.22;;
61015;SDS011;46902;52.920;6.536;2023-05-28T14:00:49;7.85;;;3.42;;
61015;SDS011;46902;52.920;6.536;2023-05-28T14:03:15;7.43;;;3.08;;
61015;SDS011;46902;52.920;6.536;2023-05-28T14:05:42;11.68;;;3.35;;
61015;SDS011;46902;52.920;6.536;2023-05-28T14:08:09;7.07;;;2.97;;
61015;SDS011;46902;52.920;6.536;2023-05-28T14:10:35;12.95;;;3.22;;
61015;SDS011;46902;52.920;6.536;2023-05-28T14:13:01;10.90;;;3.67;;
61015;SDS011;46902;52.920;6.536;2023-05-28T14:15:26;8.70;;;3.33;;
61015;SDS011;46902;52.920;6.536;2023-05-28T14:17:52;11.02;;;3.30;;
61015;SDS011;46902;52.920;6.536;2023-05-28T14:20:18;11.07;;;3.05;;
61015;SDS011;46902;52.920;6.536;2023-05-28T14:22:43;21.75;;;3.35;;
61015;SDS011;46902;52.920;6.536;2023-05-28T14:25:09;11.00;;;2.72;;
61015;SDS011;46902;52.920;6.536;2023-05-28T14:27:36;11.13;;;3.65;;
61015;SDS011;46902;52.920;6.536;2023-05-28T14:30:02;9.38;;;3.25;;
61015;SDS011;46902;52.920;6.536;2023-05-28T14:32:29;8.73;;;2.80;;
61015;SDS011;46902;52.920;6.536;2023-05-28T14:34:55;9.93;;;3.05;;
61015;SDS011;46902;52.920;6.536;2023-05-28T14:37:20;8.50;;;2.95;;
61015;SDS011;46902;52.920;6.536;2023-05-28T14:39:46;9.65;;;3.30;;
61015;SDS011;46902;52.920;6.536;2023-05-28T14:42:12;8.23;;;3.35;;
61015;SDS011;46902;52.920;6.536;2023-05-28T14:44:37;10.80;;;3.13;;
61015;SDS011;46902;52.920;6.536;2023-05-28T14:47:03;11.25;;;2.67;;
61015;SDS011;46902;52.920;6.536;2023-05-28T14:49:29;10.30;;;2.80;;
61015;SDS011;46902;52.920;6.536;2023-05-28T14:51:55;9.07;;;2.78;;